Arklow_rally — PBEG — position and weather

sailwx.info

Track history (hours):
 
Tides and Currents Weather Stations Pressure Air Temp Water Temp Dewpoint Dewpoint Depression Visibility Wind Speed Wind Dir Waves Ship Positions

Arklow_rally

Last reported at 2017-Sep-19 10:35 UTC. Time now 2017-Sep-20 18:38 UTC.
Position N 53°19' W 006°06'.

Length 90 m; draft 6.4 m.

Type: Cargo ship. MMSI: 244037000.

Date/timePositionNaut miles runAvg speedWind from/ knotsBaromVisibWave heightAir tempDewpointWater temp
2017-Sep-19 10:35N 53°19' W 006°06'0 0.0
2017-Sep-19 10:29N 53°19' W 006°06'0 0.0
2017-Sep-19 08:56N 53°19' W 006°06'0 0.0
2017-Sep-18 22:44N 53°19' W 006°06'0 0.0
2017-Sep-18 15:38N 53°19' W 006°05'0 0.0
2017-Sep-18 14:02N 53°19' W 006°06'0 0.0
2017-Sep-18 13:50N 53°19' W 006°06'0 0.0
2017-Sep-18 13:26N 53°19' W 006°06'0 0.0
2017-Sep-18 12:53N 53°19' W 006°06'0 0.0
2017-Sep-18 12:26N 53°19' W 006°06'0 0.0
2017-Sep-18 11:50N 53°19' W 006°06'0 0.0
2017-Sep-18 11:08N 53°19' W 006°06'0 0.0
2017-Sep-17 17:49N 53°19' W 006°06'103 3.2
2017-Sep-16 09:23N 51°40' W 005°19'4 9.3
2017-Sep-16 09:00N 51°38' W 005°15'5 9.9
2017-Sep-16 08:30N 51°35' W 005°08'510.6
2017-Sep-16 08:00N 51°32' W 005°01'8111.3
2017-Sep-16 00:51N 51°28' W 002°52'3 9.4
2017-Sep-16 00:30N 51°30' W 002°48'3 5.1
2017-Sep-16 00:00N 51°30' W 002°44'0 0.0
2017-Sep-15 23:30N 51°30' W 002°44'0 0.7
2017-Sep-15 22:55N 51°30' W 002°43'0 0.0
2017-Sep-15 22:25N 51°30' W 002°43'0 0.0
2017-Sep-15 21:58N 51°30' W 002°43'0 0.0
2017-Sep-15 21:28N 51°30' W 002°43'0 0.0
2017-Sep-15 20:58N 51°30' W 002°43'0 0.0
2017-Sep-15 20:25N 51°30' W 002°43'0 0.0
2017-Sep-15 19:58N 51°30' W 002°43'0 0.0
2017-Sep-15 19:28N 51°30' W 002°43'0 0.1
2017-Sep-15 18:58N 51°30' W 002°43'0 0.1
2017-Sep-15 18:25N 51°30' W 002°43'0 0.0
2017-Sep-15 17:58N 51°30' W 002°43'0 0.0
2017-Sep-15 17:28N 51°30' W 002°43'0 0.0
2017-Sep-15 16:58N 51°30' W 002°43'0 0.0
2017-Sep-15 16:28N 51°30' W 002°43'0 0.0
2017-Sep-15 15:58N 51°30' W 002°43'0 0.0
2017-Sep-15 15:25N 51°30' W 002°43'0 0.0
2017-Sep-15 14:58N 51°30' W 002°43'0 0.0
2017-Sep-15 14:28N 51°30' W 002°43'0 0.0
2017-Sep-15 13:58N 51°30' W 002°43'0 0.0
2017-Sep-15 13:22N 51°30' W 002°43'0 0.0
2017-Sep-15 12:55N 51°30' W 002°43'0 0.0
2017-Sep-15 12:22N 51°30' W 002°43'0 0.0
2017-Sep-15 11:55N 51°30' W 002°43'0 0.0
2017-Sep-15 11:28N 51°30' W 002°43'0 0.0
2017-Sep-15 10:58N 51°30' W 002°43'0 0.0
2017-Sep-15 10:28N 51°30' W 002°43'0 0.0
2017-Sep-15 09:55N 51°30' W 002°43'0 0.0
2017-Sep-15 09:28N 51°30' W 002°43'0 0.0
2017-Sep-15 08:58N 51°30' W 002°43'0 0.0
2017-Sep-15 08:28N 51°30' W 002°43'0 0.1
2017-Sep-15 07:58N 51°30' W 002°43'0 0.1
2017-Sep-15 07:31N 51°30' W 002°43'0 0.0
2017-Sep-15 07:01N 51°30' W 002°43'0 0.0
2017-Sep-15 06:30N 51°30' W 002°43'0 0.0
2017-Sep-15 06:00N 51°30' W 002°43'0 0.0
2017-Sep-15 05:30N 51°30' W 002°43'0 0.0
2017-Sep-15 05:00N 51°30' W 002°43'0 0.0
2017-Sep-15 04:30N 51°30' W 002°43'0 0.0
2017-Sep-15 04:00N 51°30' W 002°43'0 0.0
2017-Sep-15 03:30N 51°30' W 002°43'0 0.0
2017-Sep-15 03:00N 51°30' W 002°43'0 0.0
2017-Sep-15 02:30N 51°30' W 002°43'0 0.0
2017-Sep-15 02:00N 51°30' W 002°43'0 0.0
2017-Sep-15 01:30N 51°30' W 002°43'0 0.0
2017-Sep-15 01:00N 51°30' W 002°43'0 0.0
2017-Sep-15 00:30N 51°30' W 002°43'0 0.0
2017-Sep-15 00:00N 51°30' W 002°43'0 0.0
2017-Sep-14 23:30N 51°30' W 002°43'0 0.0
2017-Sep-14 23:00N 51°30' W 002°43'0 0.0
2017-Sep-14 22:30N 51°30' W 002°43'0 0.0
2017-Sep-14 22:00N 51°30' W 002°43'0 0.0
2017-Sep-14 21:30N 51°30' W 002°43'0 0.0
2017-Sep-14 21:00N 51°30' W 002°43'0 0.0
2017-Sep-14 20:30N 51°30' W 002°43'0 0.1
2017-Sep-14 20:00N 51°30' W 002°43'0 0.1
2017-Sep-14 19:30N 51°30' W 002°43'0 0.0
2017-Sep-14 19:00N 51°30' W 002°43'0 0.1
2017-Sep-14 18:30N 51°30' W 002°43'0 0.1
2017-Sep-14 18:00N 51°30' W 002°43'0 0.0
2017-Sep-14 17:24N 51°30' W 002°43'0 0.0
2017-Sep-14 17:00N 51°30' W 002°43'0 0.0
2017-Sep-14 16:30N 51°30' W 002°43'0 0.0
2017-Sep-14 15:57N 51°30' W 002°43'0 0.0
2017-Sep-14 15:30N 51°30' W 002°43'0 0.8
2017-Sep-14 14:59N 51°30' W 002°43'1 1.4
2017-Sep-14 14:30N 51°31' W 002°43'  
2017-Sep-12 09:51N 51°37' W 002°39'411.7
2017-Sep-12 09:30N 51°33' W 002°43'510.5
2017-Sep-12 09:00N 51°29' W 002°48'70 6.3
2017-Sep-11 21:55N 51°05' W 004°33'8 7.8
2017-Sep-11 20:51N 50°60' W 004°43'3 8.2
2017-Sep-11 20:30N 50°58' W 004°47'4 8.3
2017-Sep-11 20:00N 50°55' W 004°51'4 8.2
2017-Sep-11 19:30N 50°52' W 004°56'4 8.4
2017-Sep-11 19:00N 50°49' W 005°01'4 8.7
2017-Sep-11 18:30N 50°46' W 005°06'5 9.1
2017-Sep-11 17:58N 50°43' W 005°12'510.1
2017-Sep-11 17:30N 50°40' W 005°17'  
Track history (hours):
 
Tides and Currents Weather Stations Pressure Air Temp Water Temp Dewpoint Dewpoint Depression Visibility Wind Speed Wind Dir Waves Ship Positions

Arklow_rally

Last reported at 2017-Sep-19 10:35 UTC. Time now 2017-Sep-20 18:38 UTC.
Position N 53°19' W 006°06'.

Length 90 m; draft 6.4 m.

Type: Cargo ship. MMSI: 244037000.

Date/timePositionNaut miles runAvg speedWind from/ knotsBaromVisibWave heightAir tempDewpointWater temp
2017-Sep-19 10:35N 53°19' W 006°06'0 0.0
2017-Sep-19 10:29N 53°19' W 006°06'0 0.0
2017-Sep-19 08:56N 53°19' W 006°06'0 0.0
2017-Sep-18 22:44N 53°19' W 006°06'0 0.0
2017-Sep-18 15:38N 53°19' W 006°05'0 0.0
2017-Sep-18 14:02N 53°19' W 006°06'0 0.0
2017-Sep-18 13:50N 53°19' W 006°06'0 0.0
2017-Sep-18 13:26N 53°19' W 006°06'0 0.0
2017-Sep-18 12:53N 53°19' W 006°06'0 0.0
2017-Sep-18 12:26N 53°19' W 006°06'0 0.0
2017-Sep-18 11:50N 53°19' W 006°06'0 0.0
2017-Sep-18 11:08N 53°19' W 006°06'0 0.0
2017-Sep-17 17:49N 53°19' W 006°06'103 3.2
2017-Sep-16 09:23N 51°40' W 005°19'4 9.3
2017-Sep-16 09:00N 51°38' W 005°15'5 9.9
2017-Sep-16 08:30N 51°35' W 005°08'510.6
2017-Sep-16 08:00N 51°32' W 005°01'8111.3
2017-Sep-16 00:51N 51°28' W 002°52'3 9.4
2017-Sep-16 00:30N 51°30' W 002°48'3 5.1
2017-Sep-16 00:00N 51°30' W 002°44'0 0.0
2017-Sep-15 23:30N 51°30' W 002°44'0 0.7
2017-Sep-15 22:55N 51°30' W 002°43'0 0.0
2017-Sep-15 22:25N 51°30' W 002°43'0 0.0
2017-Sep-15 21:58N 51°30' W 002°43'0 0.0
2017-Sep-15 21:28N 51°30' W 002°43'0 0.0
2017-Sep-15 20:58N 51°30' W 002°43'0 0.0
2017-Sep-15 20:25N 51°30' W 002°43'0 0.0
2017-Sep-15 19:58N 51°30' W 002°43'0 0.0
2017-Sep-15 19:28N 51°30' W 002°43'0 0.1
2017-Sep-15 18:58N 51°30' W 002°43'0 0.1
2017-Sep-15 18:25N 51°30' W 002°43'0 0.0
2017-Sep-15 17:58N 51°30' W 002°43'0 0.0
2017-Sep-15 17:28N 51°30' W 002°43'0 0.0
2017-Sep-15 16:58N 51°30' W 002°43'0 0.0
2017-Sep-15 16:28N 51°30' W 002°43'0 0.0
2017-Sep-15 15:58N 51°30' W 002°43'0 0.0
2017-Sep-15 15:25N 51°30' W 002°43'0 0.0
2017-Sep-15 14:58N 51°30' W 002°43'0 0.0
2017-Sep-15 14:28N 51°30' W 002°43'0 0.0
2017-Sep-15 13:58N 51°30' W 002°43'0 0.0
2017-Sep-15 13:22N 51°30' W 002°43'0 0.0
2017-Sep-15 12:55N 51°30' W 002°43'0 0.0
2017-Sep-15 12:22N 51°30' W 002°43'0 0.0
2017-Sep-15 11:55N 51°30' W 002°43'0 0.0
2017-Sep-15 11:28N 51°30' W 002°43'0 0.0
2017-Sep-15 10:58N 51°30' W 002°43'0 0.0
2017-Sep-15 10:28N 51°30' W 002°43'0 0.0
2017-Sep-15 09:55N 51°30' W 002°43'0 0.0
2017-Sep-15 09:28N 51°30' W 002°43'0 0.0
2017-Sep-15 08:58N 51°30' W 002°43'0 0.0
2017-Sep-15 08:28N 51°30' W 002°43'0 0.1
2017-Sep-15 07:58N 51°30' W 002°43'0 0.1
2017-Sep-15 07:31N 51°30' W 002°43'0 0.0
2017-Sep-15 07:01N 51°30' W 002°43'0 0.0
2017-Sep-15 06:30N 51°30' W 002°43'0 0.0
2017-Sep-15 06:00N 51°30' W 002°43'0 0.0
2017-Sep-15 05:30N 51°30' W 002°43'0 0.0
2017-Sep-15 05:00N 51°30' W 002°43'0 0.0
2017-Sep-15 04:30N 51°30' W 002°43'0 0.0
2017-Sep-15 04:00N 51°30' W 002°43'0 0.0
2017-Sep-15 03:30N 51°30' W 002°43'0 0.0
2017-Sep-15 03:00N 51°30' W 002°43'0 0.0
2017-Sep-15 02:30N 51°30' W 002°43'0 0.0
2017-Sep-15 02:00N 51°30' W 002°43'0 0.0
2017-Sep-15 01:30N 51°30' W 002°43'0 0.0
2017-Sep-15 01:00N 51°30' W 002°43'0 0.0
2017-Sep-15 00:30N 51°30' W 002°43'0 0.0
2017-Sep-15 00:00N 51°30' W 002°43'0 0.0
2017-Sep-14 23:30N 51°30' W 002°43'0 0.0
2017-Sep-14 23:00N 51°30' W 002°43'0 0.0
2017-Sep-14 22:30N 51°30' W 002°43'0 0.0
2017-Sep-14 22:00N 51°30' W 002°43'0 0.0
2017-Sep-14 21:30N 51°30' W 002°43'0 0.0
2017-Sep-14 21:00N 51°30' W 002°43'0 0.0
2017-Sep-14 20:30N 51°30' W 002°43'0 0.1
2017-Sep-14 20:00N 51°30' W 002°43'0 0.1
2017-Sep-14 19:30N 51°30' W 002°43'0 0.0
2017-Sep-14 19:00N 51°30' W 002°43'0 0.1
2017-Sep-14 18:30N 51°30' W 002°43'0 0.1
2017-Sep-14 18:00N 51°30' W 002°43'0 0.0
2017-Sep-14 17:24N 51°30' W 002°43'0 0.0
2017-Sep-14 17:00N 51°30' W 002°43'0 0.0
2017-Sep-14 16:30N 51°30' W 002°43'0 0.0
2017-Sep-14 15:57N 51°30' W 002°43'0 0.0
2017-Sep-14 15:30N 51°30' W 002°43'0 0.8
2017-Sep-14 14:59N 51°30' W 002°43'1 1.4
2017-Sep-14 14:30N 51°31' W 002°43'  
2017-Sep-12 09:51N 51°37' W 002°39'411.7
2017-Sep-12 09:30N 51°33' W 002°43'510.5
2017-Sep-12 09:00N 51°29' W 002°48'70 6.3
2017-Sep-11 21:55N 51°05' W 004°33'8 7.8
2017-Sep-11 20:51N 50°60' W 004°43'3 8.2
2017-Sep-11 20:30N 50°58' W 004°47'4 8.3
2017-Sep-11 20:00N 50°55' W 004°51'4 8.2
2017-Sep-11 19:30N 50°52' W 004°56'4 8.4
2017-Sep-11 19:00N 50°49' W 005°01'4 8.7
2017-Sep-11 18:30N 50°46' W 005°06'5 9.1
2017-Sep-11 17:58N 50°43' W 005°12'510.1
2017-Sep-11 17:30N 50°40' W 005°17'  

Dump ship's entire track history